Time;durP1;ratioP1;P1;durP2;ratioP2;P2;SDS_P1;SDS_P2;PMS_P1;PMS_P2;Temp;Humidity;BMP_temperature;BMP_pressure;BME280_temperature;BME280_humidity;BME280_pressure;Samples;Min_cycle;Max_cycle;Signal;HPM_P1;HPM_P2
2022/06/16 00:02:56;;;;;;;2.70;2.50;;;15.10;99.90;;;;;;5050545;28;20612;-75
2022/06/16 00:05:56;;;;;;;1.97;1.87;;;15.00;99.90;;;;;;5053430;28;20877;-75
2022/06/16 00:09:05;;;;;;;3.23;2.43;;;15.00;99.90;;;;;;5042895;28;20455;-75
2022/06/16 00:11:59;;;;;;;3.20;2.77;;;15.00;99.90;;;;;;5055268;28;20458;-75
2022/06/16 00:14:59;;;;;;;3.63;2.60;;;15.00;99.90;;;;;;5052111;28;20484;-75
2022/06/16 00:18:03;;;;;;;3.33;2.10;;;15.00;99.90;;;;;;5068016;28;20544;-75
2022/06/16 00:21:14;;;;;;;3.40;2.40;;;14.90;99.90;;;;;;5055802;28;20516;-75
2022/06/16 00:24:08;;;;;;;3.83;2.50;;;14.90;99.90;;;;;;5047831;28;20481;-75
2022/06/16 00:27:16;;;;;;;2.50;2.30;;;14.90;99.90;;;;;;5052851;28;20528;-75
2022/06/16 00:30:11;;;;;;;2.63;2.30;;;14.80;99.90;;;;;;5054228;28;20462;-75
2022/06/16 00:33:13;;;;;;;2.83;2.57;;;14.80;99.90;;;;;;5048722;28;20514;-75
2022/06/16 00:36:10;;;;;;;3.30;2.20;;;14.80;99.90;;;;;;5051246;28;20481;-75
2022/06/16 00:39:00;;;;;;;2.70;2.37;;;14.70;99.90;;;;;;5051426;28;21146;-75
2022/06/16 00:41:51;;;;;;;2.70;2.50;;;14.70;99.90;;;;;;5049256;28;20833;-75
2022/06/16 00:48:05;;;;;;;;;;;;;;;;;;;;;
2022/06/16 00:51:04;;;;;;;2.63;2.40;;;14.60;99.90;;;;;;5049077;28;20969;-75
2022/06/16 00:54:03;;;;;;;3.30;2.30;;;14.50;99.90;;;;;;5047913;28;20470;-75
2022/06/16 00:57:01;;;;;;;2.90;2.60;;;14.50;99.90;;;;;;5049414;28;20489;-75
2022/06/16 00:59:55;;;;;;;2.80;2.43;;;14.40;99.90;;;;;;5048789;28;20538;-75
2022/06/16 01:02:46;;;;;;;3.13;2.47;;;14.40;99.90;;;;;;5049450;28;20470;-75
2022/06/16 01:05:39;;;;;;;4.90;2.73;;;14.40;99.90;;;;;;5052046;28;20478;-75
2022/06/16 01:08:40;;;;;;;3.20;2.90;;;14.40;99.90;;;;;;5051458;28;20456;-75
2022/06/16 01:15:30;;;;;;;3.10;2.83;;;14.30;99.90;;;;;;5049754;28;20488;-75
2022/06/16 01:18:41;;;;;;;2.70;2.47;;;14.30;99.90;;;;;;5045444;28;20509;-75
2022/06/16 01:21:46;;;;;;;2.70;2.50;;;14.30;99.90;;;;;;5050920;28;20461;-75
2022/06/16 01:25:01;;;;;;;2.67;2.47;;;14.20;99.90;;;;;;5052692;28;20474;-75
2022/06/16 01:28:21;;;;;;;4.73;2.70;;;14.20;99.90;;;;;;5054651;28;20450;-75
2022/06/16 01:31:36;;;;;;;3.00;2.80;;;14.20;99.90;;;;;;5048051;28;20513;-75
2022/06/16 01:34:46;;;;;;;3.10;2.63;;;14.20;99.90;;;;;;5048396;28;20482;-75
2022/06/16 01:38:04;;;;;;;;;;;;;;;;;;;;;
2022/06/16 01:41:11;;;;;;;3.27;2.97;;;14.10;99.90;;;;;;5046323;28;20532;-75
2022/06/16 01:44:13;;;;;;;3.70;3.33;;;14.10;99.90;;;;;;5049769;28;20504;-75
2022/06/16 01:47:09;;;;;;;4.87;3.20;;;14.00;99.90;;;;;;5049914;28;20464;-75
2022/06/16 01:50:19;;;;;;;2.63;2.43;;;14.00;99.90;;;;;;5053832;28;20463;-75
2022/06/16 01:53:18;;;;;;;3.87;2.90;;;14.00;99.90;;;;;;5049549;28;20898;-75
2022/06/16 01:56:34;;;;;;;2.97;2.77;;;14.00;99.90;;;;;;5048887;28;20494;-75
2022/06/16 01:59:33;;;;;;;2.97;2.77;;;13.90;99.90;;;;;;5051888;28;20524;-75
2022/06/16 02:02:34;;;;;;;4.33;2.83;;;13.90;99.90;;;;;;5046179;28;20492;-75
2022/06/16 02:05:33;;;;;;;2.93;2.73;;;13.80;99.90;;;;;;5045907;28;20486;-75
2022/06/16 02:11:46;;;;;;;2.90;2.70;;;13.80;99.90;;;;;;5049044;28;20539;-75
2022/06/16 02:14:42;;;;;;;3.10;2.80;;;13.80;99.90;;;;;;5047953;28;20484;-75
2022/06/16 02:17:41;;;;;;;2.97;2.67;;;13.80;99.90;;;;;;5044592;28;20593;-75
2022/06/16 02:20:43;;;;;;;3.23;2.90;;;13.80;99.90;;;;;;5047760;28;20573;-75
2022/06/16 02:23:39;;;;;;;3.63;2.80;;;13.80;99.90;;;;;;5050396;28;20474;-75
2022/06/16 02:26:46;;;;;;;4.50;3.00;;;13.80;99.90;;;;;;5049663;28;20453;-75
2022/06/16 02:29:42;;;;;;;3.90;2.80;;;13.70;99.90;;;;;;5051398;28;20616;-75
2022/06/16 02:32:49;;;;;;;4.40;3.47;;;13.70;99.90;;;;;;5050278;28;20553;-75
2022/06/16 02:36:08;;;;;;;3.53;3.23;;;13.80;99.90;;;;;;5055226;28;21172;-75
2022/06/16 02:39:14;;;;;;;3.40;3.10;;;13.80;99.90;;;;;;5053951;28;20478;-75
2022/06/16 02:42:23;;;;;;;3.00;2.77;;;13.80;99.90;;;;;;5052676;28;20509;-75
2022/06/16 02:45:23;;;;;;;3.97;2.90;;;13.80;99.90;;;;;;5051379;28;21205;-75
2022/06/16 02:48:25;;;;;;;3.03;2.80;;;13.70;99.90;;;;;;5047368;28;20454;-75
2022/06/16 02:51:25;;;;;;;3.07;2.87;;;13.80;99.90;;;;;;5054259;28;20457;-75
2022/06/16 02:54:34;;;;;;;4.80;2.90;;;13.80;99.90;;;;;;5051459;28;20898;-75
2022/06/16 02:57:47;;;;;;;3.00;2.80;;;13.70;99.90;;;;;;5069175;28;20462;-75
2022/06/16 03:00:43;;;;;;;3.00;2.80;;;13.70;99.90;;;;;;5059168;28;20553;-75
2022/06/16 03:07:01;;;;;;;3.70;3.30;;;13.60;99.90;;;;;;5054025;28;20820;-75
2022/06/16 03:09:54;;;;;;;3.10;2.80;;;13.60;99.90;;;;;;5054088;28;20867;-75
2022/06/16 03:12:48;;;;;;;3.73;3.40;;;13.60;99.90;;;;;;5056570;28;20545;-75
2022/06/16 03:15:48;;;;;;;3.30;3.00;;;13.60;99.90;;;;;;5057443;28;20473;-75
2022/06/16 03:18:51;;;;;;;3.90;3.50;;;13.60;99.90;;;;;;5053190;28;20551;-75
2022/06/16 03:21:57;;;;;;;4.20;2.97;;;13.50;99.90;;;;;;5051067;28;20537;-75
2022/06/16 03:24:55;;;;;;;4.20;3.73;;;13.60;99.90;;;;;;5047005;28;20505;-75
2022/06/16 03:27:55;;;;;;;3.57;3.00;;;13.50;99.90;;;;;;5048074;28;20529;-75
2022/06/16 03:30:57;;;;;;;3.20;2.93;;;13.50;99.90;;;;;;5046710;28;20612;-75
2022/06/16 03:33:57;;;;;;;4.87;3.77;;;13.60;99.90;;;;;;5049555;28;20550;-75
2022/06/16 03:36:59;;;;;;;3.53;3.23;;;13.50;99.90;;;;;;5052436;28;20474;-75
2022/06/16 03:39:47;;;;;;;3.43;3.00;;;13.50;99.90;;;;;;5053969;28;20468;-75
2022/06/16 03:42:52;;;;;;;3.77;3.40;;;13.50;99.90;;;;;;5045950;28;20461;-75
2022/06/16 03:45:45;;;;;;;3.80;3.50;;;13.50;99.90;;;;;;5051645;28;20584;-75
2022/06/16 03:48:45;;;;;;;3.13;2.93;;;13.40;99.90;;;;;;5042984;28;20607;-75
2022/06/16 03:51:40;;;;;;;3.90;3.60;;;13.40;99.90;;;;;;5051837;28;20484;-75
2022/06/16 03:54:31;;;;;;;4.40;3.37;;;13.50;99.90;;;;;;5051998;28;20490;-75
2022/06/16 03:57:57;;;;;;;3.60;3.13;;;13.50;99.90;;;;;;5050264;28;20585;-75
2022/06/16 04:01:22;;;;;;;3.63;3.33;;;13.50;99.90;;;;;;5052733;28;20795;-74
2022/06/16 04:04:20;;;;;;;4.20;3.17;;;13.50;99.90;;;;;;5045497;28;20858;-74
2022/06/16 04:07:27;;;;;;;3.50;3.20;;;13.50;99.90;;;;;;5050630;28;20465;-76
2022/06/16 04:10:36;;;;;;;5.50;3.67;;;13.50;99.90;;;;;;5050087;28;20462;-75
2022/06/16 04:14:00;;;;;;;5.83;3.50;;;13.50;99.90;;;;;;5044375;28;20492;-76
2022/06/16 04:17:06;;;;;;;4.93;4.00;;;13.60;99.90;;;;;;5046010;28;20970;-74
2022/06/16 04:20:16;;;;;;;4.93;3.20;;;13.60;99.90;;;;;;5050022;28;20608;-74
2022/06/16 04:23:11;;;;;;;3.93;3.63;;;13.60;99.90;;;;;;5047040;28;20564;-74
2022/06/16 04:26:39;;;;;;;3.80;3.40;;;13.60;99.90;;;;;;5045554;28;20469;-75
2022/06/16 04:29:51;;;;;;;4.10;3.70;;;13.60;99.90;;;;;;5041235;28;21095;-74
2022/06/16 04:36:29;;;;;;;3.90;3.30;;;13.60;99.90;;;;;;5046970;28;20481;-74
2022/06/16 04:39:41;;;;;;;4.23;3.93;;;13.60;99.90;;;;;;5042870;28;20552;-74
2022/06/16 04:42:37;;;;;;;5.73;3.60;;;13.70;99.90;;;;;;5044296;28;20481;-75
2022/06/16 04:45:30;;;;;;;4.03;3.30;;;13.70;99.90;;;;;;5047601;28;20478;-74
2022/06/16 04:48:44;;;;;;;4.13;3.83;;;13.70;99.90;;;;;;5050718;28;20794;-74
2022/06/16 04:51:47;;;;;;;6.43;3.83;;;13.80;99.90;;;;;;5041988;28;20463;-76
2022/06/16 04:54:40;;;;;;;5.00;3.37;;;13.80;99.90;;;;;;5039761;28;22102;-75
2022/06/16 04:57:39;;;;;;;3.40;3.17;;;13.80;99.90;;;;;;5044037;28;20609;-75
2022/06/16 05:01:08;;;;;;;3.47;3.13;;;13.80;99.90;;;;;;5038893;28;20464;-76
2022/06/16 05:04:11;;;;;;;3.93;3.63;;;13.80;99.90;;;;;;5035320;28;20537;-75
2022/06/16 05:07:14;;;;;;;4.50;3.53;;;13.80;99.90;;;;;;5049145;28;20581;-76
2022/06/16 05:10:12;;;;;;;5.00;4.00;;;13.90;99.90;;;;;;5043219;28;20461;-75
2022/06/16 05:13:25;;;;;;;4.50;4.00;;;13.90;99.90;;;;;;5056962;28;20466;-77
2022/06/16 05:16:28;;;;;;;4.73;3.73;;;13.90;99.90;;;;;;5045303;28;20499;-74
2022/06/16 05:19:44;;;;;;;3.77;3.47;;;14.00;99.90;;;;;;5047347;28;20491;-77
2022/06/16 05:22:56;;;;;;;6.60;4.00;;;13.90;99.90;;;;;;5042704;28;20558;-74
2022/06/16 05:25:51;;;;;;;6.30;3.87;;;14.00;99.90;;;;;;5045357;28;20473;-74
2022/06/16 05:28:51;;;;;;;4.83;3.77;;;14.00;99.90;;;;;;5042641;28;21034;-74
2022/06/16 05:31:45;;;;;;;4.00;3.60;;;14.00;99.90;;;;;;5047677;28;20458;-74
2022/06/16 05:35:12;;;;;;;4.70;4.30;;;14.00;99.90;;;;;;5048543;28;20480;-76
2022/06/16 05:38:05;;;;;;;4.50;3.60;;;14.10;99.90;;;;;;5049363;28;20545;-74
2022/06/16 05:40:57;;;;;;;6.17;4.30;;;14.10;99.90;;;;;;5051113;28;20648;-73
2022/06/16 05:43:48;;;;;;;4.93;4.43;;;14.20;99.90;;;;;;5051379;28;20553;-74
2022/06/16 05:46:44;;;;;;;5.17;4.67;;;14.20;99.90;;;;;;5047502;28;20447;-74
2022/06/16 05:49:38;;;;;;;5.40;4.00;;;14.20;99.90;;;;;;5047384;28;20472;-74
2022/06/16 05:52:29;;;;;;;5.13;4.60;;;14.20;99.90;;;;;;5050309;28;20454;-74
2022/06/16 05:55:48;;;;;;;4.83;4.40;;;14.20;99.90;;;;;;5047001;28;20480;-74
2022/06/16 05:58:50;;;;;;;6.00;4.53;;;14.20;99.90;;;;;;5050974;28;20450;-74
2022/06/16 06:01:43;;;;;;;4.23;3.60;;;14.30;99.90;;;;;;5050307;28;21055;-74
2022/06/16 06:04:33;;;;;;;6.60;3.93;;;14.30;99.90;;;;;;5032966;28;20490;-74
2022/06/16 06:07:21;;;;;;;5.13;3.60;;;14.30;99.90;;;;;;5047303;28;20461;-74
2022/06/16 06:16:51;;;;;;;5.97;3.60;;;14.50;99.90;;;;;;5049601;28;20478;-74
2022/06/16 06:19:40;;;;;;;5.43;4.50;;;14.50;99.90;;;;;;5052080;28;20500;-74
2022/06/16 06:22:33;;;;;;;4.37;3.90;;;14.60;99.90;;;;;;5048725;28;20454;-74
2022/06/16 06:25:25;;;;;;;4.43;4.10;;;14.60;99.90;;;;;;5049949;28;20553;-74
2022/06/16 06:28:20;;;;;;;4.43;3.90;;;14.70;99.90;;;;;;5052525;28;20493;-74
2022/06/16 06:31:09;;;;;;;4.23;3.83;;;14.70;99.90;;;;;;5048530;28;20456;-74
2022/06/16 06:33:57;;;;;;;6.57;4.20;;;14.80;99.90;;;;;;5051100;28;20479;-74
2022/06/16 06:36:47;;;;;;;5.03;3.50;;;14.80;99.90;;;;;;5050127;28;20561;-74
2022/06/16 06:39:37;;;;;;;5.07;3.90;;;14.90;99.90;;;;;;5052447;28;20564;-74
2022/06/16 06:42:27;;;;;;;3.80;3.50;;;15.00;99.90;;;;;;5052264;28;21029;-74
2022/06/16 06:45:15;;;;;;;3.83;3.30;;;15.00;99.90;;;;;;5048342;28;20556;-74
2022/06/16 06:48:04;;;;;;;6.63;3.03;;;15.10;99.90;;;;;;5045506;28;20485;-74
2022/06/16 06:50:52;;;;;;;5.47;3.27;;;15.20;99.90;;;;;;5036594;28;20545;-74
2022/06/16 06:53:40;;;;;;;4.60;2.97;;;15.30;99.90;;;;;;5051435;28;20620;-74
2022/06/16 06:56:31;;;;;;;4.97;3.17;;;15.30;99.90;;;;;;5051181;28;20769;-74
2022/06/16 06:59:21;;;;;;;3.43;2.23;;;15.40;99.90;;;;;;5051641;28;20493;-74
2022/06/16 07:02:13;;;;;;;4.53;2.80;;;15.50;99.90;;;;;;5048360;28;22019;-75
2022/06/16 07:05:02;;;;;;;2.67;2.47;;;15.60;99.90;;;;;;5045235;28;20481;-74
2022/06/16 07:07:56;;;;;;;4.27;2.40;;;15.60;99.90;;;;;;5055109;28;20530;-75
2022/06/16 07:10:46;;;;;;;2.63;2.37;;;15.70;99.90;;;;;;5049489;28;21048;-74
2022/06/16 07:13:34;;;;;;;3.13;1.77;;;15.80;99.90;;;;;;5050300;28;20885;-74
2022/06/16 07:16:24;;;;;;;2.67;2.47;;;16.00;99.90;;;;;;5053939;28;20545;-74
2022/06/16 07:19:12;;;;;;;2.73;2.43;;;16.00;99.90;;;;;;5054703;28;20466;-74
2022/06/16 07:22:02;;;;;;;3.97;2.30;;;16.10;99.90;;;;;;5052540;28;20476;-74
2022/06/16 07:24:50;;;;;;;2.27;2.10;;;16.20;99.90;;;;;;5054426;28;20562;-74
2022/06/16 07:27:38;;;;;;;3.17;2.07;;;16.30;99.90;;;;;;5056486;28;20542;-73
2022/06/16 07:30:29;;;;;;;2.93;2.17;;;16.40;99.90;;;;;;5055701;28;21233;-76
2022/06/16 07:33:23;;;;;;;2.40;2.20;;;16.50;99.90;;;;;;5051948;28;20962;-76
2022/06/16 07:36:11;;;;;;;3.43;1.83;;;16.50;99.90;;;;;;5049777;28;20520;-75
2022/06/16 07:39:04;;;;;;;2.03;1.83;;;16.60;99.90;;;;;;5054159;28;20477;-76
2022/06/16 07:41:55;;;;;;;2.10;2.00;;;16.70;99.90;;;;;;5057157;28;20446;-76
2022/06/16 07:44:45;;;;;;;3.50;2.30;;;16.70;99.90;;;;;;5054279;28;20879;-76
2022/06/16 07:47:34;;;;;;;2.00;1.80;;;16.80;99.90;;;;;;5053011;28;20515;-76
2022/06/16 07:50:23;;;;;;;4.10;1.80;;;16.80;99.90;;;;;;5054692;28;20579;-76
2022/06/16 07:53:11;;;;;;;3.07;2.17;;;16.80;99.90;;;;;;5054185;28;21016;-76
2022/06/16 07:56:00;;;;;;;1.90;1.70;;;16.80;99.90;;;;;;5052044;28;20566;-76
2022/06/16 07:58:51;;;;;;;1.70;1.60;;;16.80;99.90;;;;;;5050920;28;20571;-76
2022/06/16 08:01:39;;;;;;;3.77;1.70;;;16.90;99.90;;;;;;5051816;28;20454;-76
2022/06/16 08:04:28;;;;;;;2.00;1.80;;;16.90;99.90;;;;;;5054655;28;20462;-76
2022/06/16 08:07:18;;;;;;;2.40;1.83;;;16.90;99.90;;;;;;5048266;28;20771;-74
2022/06/16 08:10:12;;;;;;;2.90;2.20;;;17.00;99.90;;;;;;5054871;28;20472;-74
2022/06/16 08:13:03;;;;;;;3.07;2.00;;;17.00;99.90;;;;;;5054109;28;20485;-74
2022/06/16 08:15:52;;;;;;;3.00;1.80;;;17.10;99.90;;;;;;5051729;28;20474;-74
2022/06/16 08:18:40;;;;;;;1.90;1.73;;;17.10;99.90;;;;;;5062281;28;20926;-74
2022/06/16 08:21:29;;;;;;;3.03;1.73;;;17.20;99.90;;;;;;5057301;28;20528;-74
2022/06/16 08:24:22;;;;;;;2.50;1.63;;;17.20;99.90;;;;;;5052812;28;20970;-74
2022/06/16 08:27:11;;;;;;;1.67;1.53;;;17.20;99.90;;;;;;5054443;28;21151;-74
2022/06/16 08:30:02;;;;;;;1.60;1.50;;;17.30;99.90;;;;;;5052067;28;20478;-74
2022/06/16 08:32:52;;;;;;;1.80;1.70;;;17.30;99.90;;;;;;5052931;28;20543;-74
2022/06/16 08:35:41;;;;;;;1.93;1.77;;;17.40;99.90;;;;;;5053054;28;20509;-75
2022/06/16 08:38:30;;;;;;;1.50;1.40;;;17.40;99.90;;;;;;5051531;28;20547;-75
2022/06/16 08:41:28;;;;;;;1.53;1.30;;;17.40;99.90;;;;;;5055441;28;20515;-75
2022/06/16 08:44:23;;;;;;;3.13;1.60;;;17.30;99.90;;;;;;5052796;28;21006;-75
2022/06/16 08:47:20;;;;;;;2.73;1.27;;;17.30;99.90;;;;;;5047387;28;20471;-75
2022/06/16 08:50:32;;;;;;;1.20;1.10;;;17.40;99.90;;;;;;5050429;28;21386;-75
2022/06/16 08:53:36;;;;;;;1.37;1.20;;;17.40;99.90;;;;;;5050123;28;20459;-75
2022/06/16 08:56:37;;;;;;;1.30;1.20;;;17.50;99.90;;;;;;5049321;28;20455;-76
2022/06/16 08:59:32;;;;;;;4.17;1.40;;;17.50;99.90;;;;;;5051598;28;20889;-75
2022/06/16 09:02:28;;;;;;;2.00;1.30;;;17.70;99.90;;;;;;5050321;28;20552;-75
2022/06/16 09:05:34;;;;;;;1.30;1.20;;;17.70;99.90;;;;;;5052982;28;20970;-75
2022/06/16 09:08:38;;;;;;;1.33;1.23;;;17.80;99.90;;;;;;5053366;28;20564;-75
2022/06/16 09:11:36;;;;;;;1.10;1.00;;;17.80;99.90;;;;;;5051406;28;20449;-75
2022/06/16 09:18:15;;;;;;;1.43;1.20;;;17.90;99.90;;;;;;5050516;28;21036;-75
2022/06/16 09:21:13;;;;;;;3.27;1.23;;;18.00;99.90;;;;;;5053791;28;20509;-75
2022/06/16 09:24:23;;;;;;;1.30;1.20;;;18.00;99.90;;;;;;5054760;28;20470;-75
2022/06/16 09:27:19;;;;;;;1.80;1.30;;;18.10;99.90;;;;;;5054629;28;20554;-75
2022/06/16 09:30:13;;;;;;;1.33;1.20;;;18.20;99.90;;;;;;5052230;28;20502;-75
2022/06/16 09:33:08;;;;;;;2.67;1.40;;;18.30;99.90;;;;;;5052459;28;20649;-75
2022/06/16 09:36:00;;;;;;;1.83;1.50;;;18.40;99.90;;;;;;5052425;28;20621;-75
2022/06/16 09:38:53;;;;;;;1.30;1.20;;;18.50;99.90;;;;;;5055276;28;21127;-75
2022/06/16 09:45:03;;;;;;;1.70;1.60;;;18.70;99.90;;;;;;5052499;28;20487;-75
2022/06/16 09:48:04;;;;;;;1.97;1.20;;;18.70;99.90;;;;;;5054127;28;20450;-76
2022/06/16 09:51:00;;;;;;;1.33;1.23;;;18.70;99.90;;;;;;5051828;28;20486;-75
2022/06/16 09:53:54;;;;;;;2.30;1.40;;;18.90;99.90;;;;;;5053438;28;20470;-75
2022/06/16 09:56:49;;;;;;;1.90;1.67;;;18.90;99.90;;;;;;5054450;28;20471;-75
2022/06/16 09:59:42;;;;;;;1.53;1.43;;;18.80;99.90;;;;;;5052114;28;20559;-75
2022/06/16 10:02:45;;;;;;;1.70;1.40;;;18.80;99.90;;;;;;5051983;28;20954;-75
2022/06/16 10:05:39;;;;;;;2.73;1.13;;;18.90;99.90;;;;;;5053237;28;20501;-75
2022/06/16 10:08:37;;;;;;;1.70;1.60;;;19.00;99.90;;;;;;5054171;28;20501;-75
2022/06/16 10:11:37;;;;;;;2.30;1.33;;;19.00;99.90;;;;;;5051368;28;21055;-75
2022/06/16 10:14:45;;;;;;;1.50;1.40;;;19.10;99.90;;;;;;5050878;28;20511;-75
2022/06/16 10:17:37;;;;;;;3.07;1.63;;;19.00;99.90;;;;;;5053275;28;20481;-75
2022/06/16 10:20:29;;;;;;;2.43;1.67;;;19.10;99.90;;;;;;5052816;28;20534;-75
2022/06/16 10:23:25;;;;;;;2.23;1.30;;;19.20;99.90;;;;;;5051732;28;20474;-75
2022/06/16 10:26:15;;;;;;;2.47;1.67;;;19.20;99.90;;;;;;5048582;28;20477;-76
2022/06/16 10:29:13;;;;;;;2.00;1.30;;;19.30;99.90;;;;;;5053661;28;20484;-76
2022/06/16 10:32:15;;;;;;;1.90;1.60;;;19.30;99.90;;;;;;5051592;28;20542;-76
2022/06/16 10:35:07;;;;;;;1.47;1.37;;;19.40;99.90;;;;;;5049492;28;20610;-76
2022/06/16 10:37:57;;;;;;;2.53;1.80;;;19.40;99.90;;;;;;5052471;28;20548;-75
2022/06/16 10:40:48;;;;;;;1.60;1.50;;;19.50;99.90;;;;;;5058284;28;20549;-75
2022/06/16 10:44:01;;;;;;;1.60;1.50;;;19.50;99.90;;;;;;5057250;28;20465;-75
2022/06/16 10:46:55;;;;;;;2.83;1.50;;;19.60;99.90;;;;;;5057208;28;20450;-75
2022/06/16 10:49:46;;;;;;;1.80;1.70;;;19.70;99.90;;;;;;5056887;28;20445;-75
2022/06/16 10:52:40;;;;;;;2.43;1.90;;;19.80;99.90;;;;;;5057361;28;20568;-75
2022/06/16 10:55:35;;;;;;;1.50;1.40;;;19.80;99.90;;;;;;5054686;28;20580;-75
2022/06/16 10:58:27;;;;;;;2.30;1.80;;;19.80;99.90;;;;;;5056881;28;20449;-75
2022/06/16 11:01:22;;;;;;;5.20;2.03;;;19.90;99.90;;;;;;5057732;28;20473;-75
2022/06/16 11:04:17;;;;;;;1.60;1.50;;;20.10;99.90;;;;;;5059830;28;20493;-74
2022/06/16 11:07:11;;;;;;;2.43;1.40;;;20.20;99.90;;;;;;5061126;28;20500;-75
2022/06/16 11:10:09;;;;;;;2.13;1.50;;;20.20;99.90;;;;;;5057792;28;20461;-75
2022/06/16 11:12:59;;;;;;;1.67;1.53;;;20.20;99.90;;;;;;5056198;28;20480;-75
2022/06/16 11:15:49;;;;;;;3.13;1.70;;;20.10;99.90;;;;;;5046160;28;20567;-74
2022/06/16 11:18:41;;;;;;;1.70;1.60;;;20.20;99.90;;;;;;5038988;28;21036;-76
2022/06/16 11:21:32;;;;;;;1.47;1.37;;;20.40;99.90;;;;;;5038290;28;20486;-76
2022/06/16 11:24:28;;;;;;;1.93;1.73;;;20.50;99.90;;;;;;5041826;28;20996;-75
2022/06/16 11:27:22;;;;;;;1.60;1.50;;;20.70;99.90;;;;;;5045525;28;20544;-76
2022/06/16 11:30:36;;;;;;;2.73;1.70;;;20.80;99.90;;;;;;5034216;28;20489;-76
2022/06/16 11:36:52;;;;;;;4.83;2.00;;;21.10;99.90;;;;;;5047524;28;20540;-76
2022/06/16 11:39:50;;;;;;;1.83;1.73;;;21.20;99.90;;;;;;5051731;28;20473;-77
2022/06/16 11:42:54;;;;;;;1.57;1.47;;;21.30;99.90;;;;;;5049946;28;20516;-76
2022/06/16 11:45:49;;;;;;;2.00;1.80;;;21.40;99.90;;;;;;5045004;28;20473;-76
2022/06/16 11:48:48;;;;;;;11.93;2.47;;;21.40;99.90;;;;;;5051631;28;20462;-77
2022/06/16 11:51:46;;;;;;;11.80;2.60;;;21.40;99.90;;;;;;5048597;28;20944;-77
2022/06/16 11:54:44;;;;;;;3.67;1.57;;;21.50;99.90;;;;;;5045185;28;20587;-75
2022/06/16 11:57:46;;;;;;;2.57;1.60;;;21.70;99.90;;;;;;5049326;28;20498;-76
2022/06/16 12:00:42;;;;;;;1.80;1.70;;;21.70;99.90;;;;;;5050674;28;20510;-77
2022/06/16 12:04:26;;;;;;;6.60;2.30;;;21.70;99.90;;;;;;5051340;28;20877;-74
2022/06/16 12:07:33;;;;;;;3.57;1.80;;;21.60;99.90;;;;;;5019478;28;20929;-77
2022/06/16 12:10:30;;;;;;;17.23;3.20;;;21.70;99.90;;;;;;5054010;28;21013;-76
2022/06/16 12:13:27;;;;;;;3.73;1.50;;;21.90;99.90;;;;;;5042504;28;20496;-75
2022/06/16 12:16:25;;;;;;;1.63;1.53;;;22.00;99.90;;;;;;5046771;28;20462;-76
2022/06/16 12:19:32;;;;;;;3.73;1.57;;;22.10;99.90;;;;;;5044103;28;20482;-77
2022/06/16 12:22:33;;;;;;;2.20;1.27;;;22.20;99.90;;;;;;5044877;28;20456;-75
2022/06/16 12:25:31;;;;;;;2.47;1.47;;;22.20;99.90;;;;;;5050064;28;20506;-76
2022/06/16 12:28:27;;;;;;;2.10;1.40;;;22.30;99.90;;;;;;5047158;28;20457;-78
2022/06/16 12:31:23;;;;;;;2.23;1.63;;;22.30;99.90;;;;;;5050084;28;20536;-76
2022/06/16 12:34:25;;;;;;;2.70;1.70;;;22.20;99.90;;;;;;5044775;28;20496;-77
2022/06/16 12:37:19;;;;;;;1.53;1.43;;;22.20;99.90;;;;;;5045449;28;20446;-77
2022/06/16 12:40:16;;;;;;;1.63;1.50;;;22.20;99.90;;;;;;5045492;28;20479;-78
2022/06/16 12:43:15;;;;;;;1.53;1.43;;;22.00;99.90;;;;;;5043730;28;21029;-77
2022/06/16 12:46:05;;;;;;;1.60;1.43;;;22.00;99.90;;;;;;5042841;28;20496;-76
2022/06/16 12:49:00;;;;;;;1.90;1.23;;;22.00;99.90;;;;;;5046333;28;20817;-78
2022/06/16 12:51:58;;;;;;;3.10;1.20;;;22.00;99.90;;;;;;5052318;28;20965;-77
2022/06/16 12:54:52;;;;;;;1.77;1.47;;;22.00;99.90;;;;;;5042793;28;20576;-77
2022/06/16 12:57:47;;;;;;;1.60;1.50;;;21.90;99.90;;;;;;5044778;28;20929;-77
2022/06/16 13:00:41;;;;;;;1.43;1.33;;;21.90;99.90;;;;;;5045935;28;20560;-76
2022/06/16 13:03:35;;;;;;;1.50;1.33;;;22.00;99.90;;;;;;5039607;28;20978;-77
2022/06/16 13:06:29;;;;;;;1.57;1.47;;;22.20;99.90;;;;;;5040897;28;20457;-77
2022/06/16 13:09:17;;;;;;;3.20;1.40;;;22.40;99.90;;;;;;5047264;28;20553;-76
2022/06/16 13:12:17;;;;;;;3.07;1.60;;;22.50;99.90;;;;;;5047568;28;20541;-74
2022/06/16 13:15:12;;;;;;;2.20;1.40;;;22.60;99.90;;;;;;5050113;28;21436;-74
2022/06/16 13:18:07;;;;;;;2.70;1.50;;;22.70;99.90;;;;;;5039232;28;21194;-73
2022/06/16 13:21:04;;;;;;;1.43;1.27;;;22.90;99.90;;;;;;5040050;28;20644;-76
2022/06/16 13:24:10;;;;;;;3.07;1.40;;;23.00;99.90;;;;;;5038688;28;20483;-75
2022/06/16 13:27:11;;;;;;;1.40;1.30;;;23.10;99.90;;;;;;5031062;28;20594;-76
2022/06/16 13:30:35;;;;;;;2.10;1.43;;;23.20;99.90;;;;;;5039649;28;20453;-76
2022/06/16 13:33:44;;;;;;;1.50;1.37;;;23.10;99.90;;;;;;5044254;28;21064;-77
2022/06/16 13:36:54;;;;;;;2.10;1.43;;;23.00;99.90;;;;;;5049135;28;20454;-78
2022/06/16 13:40:13;;;;;;;2.10;1.50;;;22.90;99.90;;;;;;5046575;28;20619;-76
2022/06/16 13:43:13;;;;;;;1.30;1.20;;;22.90;99.90;;;;;;5053066;28;20485;-77
2022/06/16 13:46:05;;;;;;;2.30;1.47;;;22.80;99.90;;;;;;5048551;28;20476;-76
2022/06/16 13:49:05;;;;;;;2.90;1.33;;;22.60;99.90;;;;;;5067718;28;20458;-79
2022/06/16 13:52:05;;;;;;;2.60;1.57;;;22.60;99.90;;;;;;5049803;28;20878;-78
2022/06/16 13:55:12;;;;;;;1.40;1.20;;;22.50;99.90;;;;;;5043612;28;20483;-79
2022/06/16 13:58:12;;;;;;;1.40;1.30;;;22.50;99.90;;;;;;5036644;28;20451;-78
2022/06/16 14:01:16;;;;;;;2.00;1.40;;;22.60;99.90;;;;;;5037866;28;20576;-76
2022/06/16 14:04:11;;;;;;;2.57;1.60;;;22.80;99.90;;;;;;5037014;28;20485;-75
2022/06/16 14:07:05;;;;;;;2.87;2.20;;;23.10;99.90;;;;;;5048304;28;20461;-77
2022/06/16 14:10:02;;;;;;;3.73;1.40;;;23.20;99.90;;;;;;5045291;28;21011;-77
2022/06/16 14:13:08;;;;;;;2.93;1.40;;;23.30;99.90;;;;;;5047423;28;20476;-76
2022/06/16 14:16:21;;;;;;;3.23;1.40;;;23.40;99.90;;;;;;5039888;28;20639;-76
2022/06/16 14:19:23;;;;;;;1.80;1.60;;;23.60;99.90;;;;;;5054566;28;21057;-76
2022/06/16 14:22:15;;;;;;;2.03;1.53;;;23.60;99.90;;;;;;5056203;28;20470;-76
2022/06/16 14:25:14;;;;;;;2.37;1.43;;;23.50;99.90;;;;;;5043329;28;21070;-76
2022/06/16 14:28:11;;;;;;;2.07;1.87;;;23.40;99.90;;;;;;5049378;28;20548;-76
2022/06/16 14:31:22;;;;;;;1.70;1.60;;;23.20;99.90;;;;;;5053898;28;20442;-76
2022/06/16 14:34:20;;;;;;;2.00;1.60;;;23.00;99.90;;;;;;5053419;28;20482;-77
2022/06/16 14:37:13;;;;;;;1.40;1.30;;;22.80;99.90;;;;;;5049368;28;20564;-76
2022/06/16 14:40:12;;;;;;;2.47;1.60;;;22.80;99.90;;;;;;5053520;28;20462;-76
2022/06/16 14:43:22;;;;;;;4.03;1.63;;;22.80;99.90;;;;;;5057102;28;20504;-76
2022/06/16 14:46:20;;;;;;;1.57;1.30;;;22.70;99.90;;;;;;5049489;28;20913;-76
2022/06/16 14:49:10;;;;;;;2.37;1.23;;;22.80;99.90;;;;;;5050838;28;20457;-76
2022/06/16 14:52:01;;;;;;;2.60;1.33;;;22.90;99.90;;;;;;5054285;28;21475;-76
2022/06/16 14:54:58;;;;;;;2.27;1.70;;;22.80;99.90;;;;;;5050989;28;22344;-78
2022/06/16 14:57:54;;;;;;;2.37;1.63;;;22.70;99.90;;;;;;5054580;28;20463;-75
2022/06/16 15:00:49;;;;;;;2.90;1.70;;;22.50;99.90;;;;;;5057588;28;20466;-79
2022/06/16 15:03:46;;;;;;;1.77;1.63;;;22.20;99.90;;;;;;5055244;28;20483;-78
2022/06/16 15:06:38;;;;;;;4.57;1.53;;;22.10;99.90;;;;;;5054612;28;20459;-77
2022/06/16 15:09:33;;;;;;;4.07;2.10;;;22.20;99.90;;;;;;5054562;28;20450;-78
2022/06/16 15:12:22;;;;;;;4.03;1.70;;;22.40;99.90;;;;;;5053793;28;20445;-76
2022/06/16 15:15:16;;;;;;;2.30;2.10;;;22.60;99.90;;;;;;5054588;28;20474;-77
2022/06/16 15:18:13;;;;;;;1.67;1.53;;;22.80;99.90;;;;;;5054437;28;20520;-77
2022/06/16 15:21:11;;;;;;;2.47;1.80;;;23.00;99.90;;;;;;5048826;28;20773;-76
2022/06/16 15:23:59;;;;;;;2.23;2.00;;;23.10;99.90;;;;;;5049940;28;20474;-76
2022/06/16 15:26:59;;;;;;;3.63;2.00;;;23.30;99.90;;;;;;5052915;28;20446;-76
2022/06/16 15:29:51;;;;;;;2.97;2.07;;;23.40;99.90;;;;;;5061690;28;20458;-77
2022/06/16 15:36:15;;;;;;;2.97;1.70;;;23.40;99.90;;;;;;5048950;28;20585;-73
2022/06/16 15:39:13;;;;;;;2.50;2.10;;;23.50;99.90;;;;;;5048336;28;20458;-73
2022/06/16 15:42:03;;;;;;;3.00;2.00;;;23.60;99.90;;;;;;5051829;28;20704;-73
2022/06/16 15:44:55;;;;;;;4.30;1.97;;;23.80;99.90;;;;;;5050418;28;21040;-73
2022/06/16 15:47:44;;;;;;;2.30;2.00;;;23.90;99.90;;;;;;5045669;28;20459;-74
2022/06/16 15:50:36;;;;;;;3.13;1.80;;;24.00;99.90;;;;;;5043377;28;20550;-73
2022/06/16 15:53:27;;;;;;;2.63;1.83;;;24.00;99.90;;;;;;5046128;28;20976;-73
2022/06/16 15:56:24;;;;;;;2.20;2.00;;;24.10;99.90;;;;;;5037374;28;20458;-75
2022/06/16 15:59:14;;;;;;;1.77;1.63;;;24.20;99.90;;;;;;5045350;28;21315;-74
2022/06/16 16:02:05;;;;;;;3.57;1.70;;;24.20;99.90;;;;;;5044433;28;21088;-75
2022/06/16 16:05:02;;;;;;;2.27;2.07;;;24.20;99.90;;;;;;5045055;28;20552;-75
2022/06/16 16:07:52;;;;;;;2.70;1.93;;;24.20;99.90;;;;;;5046393;28;20470;-75